Floresta, Brazil
Current Conditions -  °F | °C
As of 12:00 PM on Tuesday 21 Oct 2014 (Local Time) from SBJU Reporting Station
Broken Clouds Broken Clouds  
Wind Chill: 91°   Ceiling: 2300
Heat Index: 95°   Visibility: 6mi
Dew Point: 68°   Wind: 5mph
Humidity: 46%   Direction: 40°NE
Pressure: 29.97"   Gusts: NA
Location:  8.6°S, 38.57°W
Report Text: SBJU 211500Z 04004KT 9999 BKN023 33/20 Q1015
Loading
Personal Weather Stations






























Interactive Weather Map
Tropical Storm Tracking
New forecast layout! Learn more

10-Day Weather Forecast

Advertisements
Track Severe Weather on mobile